Terminal Aerodrome Forecast
Issued by NWS Charleston, SC

Home | Current Version | Previous Version | Text Only | Print | Product List | Glossary On
Versions: 1 2 3 4 5 6 7 8 9 10 11 12 13 14 15 16 17 18 19 20 21 22 23
000
FTUS42 KCHS 260537
TAFSAV
TAF
KSAV 260537Z 2606/2706 22008KT P6SM SCT120 WS020/26035KT
     FM260900 23008KT P6SM SCT007 BKN012 WS020/27035KT
     FM261330 26012G18KT P6SM FEW012 SCT025
     FM261700 27016G22KT P6SM FEW060
     FM262300 28009KT P6SM BKN050=

USA.gov is the U.S. government's official web portal to all federal, state and local government web resources and services.